createdAt,value
2023-02-23T00:01:27.204Z,101230.06
2023-02-23T00:04:33.351Z,101226.78
2023-02-23T00:11:22.980Z,101227.50
2023-02-23T00:14:29.770Z,101231.28
2023-02-23T00:17:34.551Z,101239.97
2023-02-23T00:20:44.993Z,101218.69
2023-02-23T00:23:52.004Z,101248.59
2023-02-23T00:26:56.745Z,101236.66
2023-02-23T00:30:01.113Z,101251.91
2023-02-23T00:33:08.549Z,101246.34
2023-02-23T00:36:15.715Z,101249.16
2023-02-23T00:39:29.966Z,101245.81
2023-02-23T00:42:34.319Z,101260.56
2023-02-23T00:45:38.425Z,101251.25
2023-02-23T00:48:42.755Z,101247.38
2023-02-23T00:51:47.802Z,101251.47
2023-02-23T00:54:54.316Z,101242.34
2023-02-23T00:58:00.499Z,101244.81
2023-02-23T01:01:11.215Z,101252.16
2023-02-23T01:04:15.837Z,101251.53
2023-02-23T01:07:19.640Z,101257.38
2023-02-23T01:14:58.662Z,101252.28
2023-02-23T01:24:04.821Z,101261.44
2023-02-23T01:27:19.294Z,101239.97
2023-02-23T01:30:23.945Z,101239.13
2023-02-23T01:33:28.305Z,101255.72
2023-02-23T01:36:36.599Z,101246.97
2023-02-23T01:39:40.842Z,101222.59
2023-02-23T01:42:47.969Z,101249.13
2023-02-23T01:45:53.006Z,101249.22
2023-02-23T01:48:58.523Z,101225.63
2023-02-23T01:52:08.100Z,101229.38
2023-02-23T01:55:17.190Z,101230.63
2023-02-23T01:58:21.977Z,101215.31
2023-02-23T02:01:26.499Z,101223.84
2023-02-23T02:04:34.408Z,101211.44
2023-02-23T02:07:40.833Z,101213.34
2023-02-23T02:10:47.551Z,101190.34
2023-02-23T02:13:54.935Z,101187.34
2023-02-23T02:17:08.739Z,101225.84
2023-02-23T02:20:33.854Z,101210.66
2023-02-23T02:23:41.183Z,101229.63
2023-02-23T02:27:08.276Z,101215.50
2023-02-23T02:30:28.486Z,101228.25
2023-02-23T02:33:44.836Z,101224.06
2023-02-23T02:37:33.899Z,101235.44
2023-02-23T02:40:54.088Z,101233.53
2023-02-23T02:44:12.470Z,101217.63
2023-02-23T02:47:58.879Z,101233.47
2023-02-23T02:51:22.402Z,101196.03
2023-02-23T02:54:37.341Z,101200.78
2023-02-23T02:57:44.855Z,101205.06
2023-02-23T03:01:10.334Z,101221.34
2023-02-23T03:04:43.466Z,101214.53
2023-02-23T03:08:34.258Z,101146.09
2023-02-23T03:12:03.714Z,101149.44
2023-02-23T03:15:35.049Z,101183.19
2023-02-23T03:19:33.378Z,101185.84
2023-02-23T03:23:12.040Z,101167.66
2023-02-23T03:26:50.523Z,101192.09
2023-02-23T03:30:22.439Z,101191.47
2023-02-23T03:34:06.297Z,101182.84
2023-02-23T03:37:41.952Z,101187.53
2023-02-23T03:41:07.376Z,101184.63
2023-02-23T03:44:37.685Z,101165.19
2023-02-23T03:48:03.586Z,101169.19
2023-02-23T03:51:31.168Z,101183.75
2023-02-23T03:55:00.381Z,101174.94
2023-02-23T03:58:28.716Z,101177.31
2023-02-23T04:01:53.320Z,101177.53
2023-02-23T04:05:21.233Z,101176.59
2023-02-23T04:08:50.484Z,101177.22
2023-02-23T04:12:21.108Z,101175.22
2023-02-23T04:15:32.939Z,101173.47
2023-02-23T04:18:39.701Z,101176.38
2023-02-23T04:21:44.107Z,101164.75
2023-02-23T04:24:48.636Z,101179.09
2023-02-23T04:31:42.603Z,101168.41
2023-02-23T04:34:47.436Z,101161.56
2023-02-23T04:37:54.726Z,101183.19
2023-02-23T04:40:58.620Z,101181.41
2023-02-23T04:44:06.349Z,101135.75
2023-02-23T04:47:10.733Z,101173.06
2023-02-23T04:50:18.285Z,101180.75
2023-02-23T04:53:22.855Z,101163.19
2023-02-23T04:56:27.050Z,101182.78
2023-02-23T04:59:35.201Z,101181.72
2023-02-23T05:02:39.157Z,101166.09
2023-02-23T05:05:43.028Z,101171.91
2023-02-23T05:08:51.507Z,101170.50
2023-02-23T05:11:56.417Z,101157.13
2023-02-23T05:15:00.554Z,101173.56
2023-02-23T05:18:04.643Z,101143.03
2023-02-23T05:21:15.233Z,101179.03
2023-02-23T05:24:20.283Z,101168.72
2023-02-23T05:27:24.816Z,101155.25
2023-02-23T05:30:28.794Z,101161.63
2023-02-23T05:33:35.881Z,101157.66
2023-02-23T05:36:40.609Z,101163.00
2023-02-23T05:39:45.202Z,101164.06
2023-02-23T05:42:49.484Z,101162.72
2023-02-23T05:45:53.819Z,101159.63
2023-02-23T05:49:02.610Z,101163.91
2023-02-23T05:52:07.315Z,101157.88
2023-02-23T05:55:12.955Z,101165.66
2023-02-23T05:58:17.760Z,101167.16
2023-02-23T06:01:23.185Z,101165.56
2023-02-23T06:04:27.714Z,101138.59
2023-02-23T06:07:32.764Z,101171.22
2023-02-23T06:10:37.108Z,101165.59
2023-02-23T06:13:41.040Z,101165.75
2023-02-23T06:16:46.111Z,101164.81
2023-02-23T06:19:50.755Z,101154.78
2023-02-23T06:22:55.452Z,101173.44
2023-02-23T06:26:00.849Z,101176.88
2023-02-23T06:29:05.555Z,101174.16
2023-02-23T06:32:09.585Z,101177.84
2023-02-23T06:35:47.099Z,101172.72
2023-02-23T06:38:53.786Z,101172.03
2023-02-23T06:41:58.586Z,101177.03
2023-02-23T06:45:12.430Z,101143.06
2023-02-23T06:48:19.879Z,101184.19
2023-02-23T06:51:32.027Z,101183.66
2023-02-23T06:54:36.170Z,101179.31
2023-02-23T06:57:56.760Z,101167.75
2023-02-23T07:01:07.233Z,101151.38
2023-02-23T07:04:16.847Z,101184.00
2023-02-23T07:07:31.690Z,101180.69
2023-02-23T07:10:44.696Z,101181.91
2023-02-23T07:13:51.901Z,101117.47
2023-02-23T07:16:56.649Z,101125.66
2023-02-23T07:20:00.623Z,101177.22
2023-02-23T07:23:05.107Z,101159.13
2023-02-23T07:26:10.452Z,101185.63
2023-02-23T07:29:14.792Z,101110.34
2023-02-23T07:32:18.722Z,101181.06
2023-02-23T07:35:23.159Z,101182.72
2023-02-23T07:38:27.269Z,101159.88
2023-02-23T07:41:31.322Z,101149.13
2023-02-23T07:44:35.543Z,101162.97
2023-02-23T07:47:40.282Z,101163.59
2023-02-23T07:50:44.859Z,101176.50
2023-02-23T07:53:49.759Z,101158.63
2023-02-23T07:56:53.961Z,101178.31
2023-02-23T07:59:58.798Z,101168.94
2023-02-23T08:03:06.731Z,101173.97
2023-02-23T08:06:10.621Z,101177.16
2023-02-23T08:09:14.853Z,101144.06
2023-02-23T08:12:19.335Z,101164.53
2023-02-23T08:15:23.533Z,101175.50
2023-02-23T08:18:28.681Z,101162.72
2023-02-23T08:21:33.540Z,101174.72
2023-02-23T08:24:38.292Z,101178.16
2023-02-23T08:27:43.320Z,101186.88
2023-02-23T08:30:50.519Z,101182.47
2023-02-23T08:33:54.844Z,101172.09
2023-02-23T08:37:00.903Z,101149.00
2023-02-23T08:40:08.831Z,101192.34
2023-02-23T08:43:12.913Z,101201.28
2023-02-23T08:46:19.502Z,101206.03
2023-02-23T08:49:24.067Z,101183.41
2023-02-23T08:52:27.816Z,101182.97
2023-02-23T08:55:39.377Z,101200.28
2023-02-23T08:58:44.681Z,101208.78
2023-02-23T09:01:48.743Z,101210.22
2023-02-23T09:04:54.722Z,101218.63
2023-02-23T09:07:58.872Z,101198.66
2023-02-23T09:11:03.678Z,101191.66
2023-02-23T09:14:07.989Z,101197.63
2023-02-23T09:17:12.183Z,101191.63
2023-02-23T09:20:17.787Z,101217.19
2023-02-23T09:23:25.291Z,101214.56
2023-02-23T09:26:30.155Z,101221.00
2023-02-23T09:29:34.781Z,101220.75
2023-02-23T09:32:38.716Z,101232.91
2023-02-23T09:35:43.219Z,101207.59
2023-02-23T09:38:50.207Z,101230.13
2023-02-23T09:42:36.858Z,101202.84
2023-02-23T09:46:00.641Z,101237.19
2023-02-23T09:49:14.519Z,101213.41
2023-02-23T09:52:48.101Z,101236.69
2023-02-23T09:55:57.654Z,101244.16
2023-02-23T09:59:02.146Z,101235.56
2023-02-23T10:02:27.386Z,101251.34
2023-02-23T10:05:38.981Z,101244.81
2023-02-23T10:08:55.151Z,101245.47
2023-02-23T10:12:19.815Z,101252.34
2023-02-23T10:15:30.277Z,101256.34
2023-02-23T10:19:09.052Z,101253.50
2023-02-23T10:25:51.668Z,101227.41
2023-02-23T10:29:00.814Z,101225.81
2023-02-23T10:32:18.028Z,101254.69
2023-02-23T10:35:25.507Z,101254.00
2023-02-23T10:38:33.957Z,101258.59
2023-02-23T10:41:40.346Z,101254.53
2023-02-23T10:44:47.855Z,101263.97
2023-02-23T10:47:58.910Z,101248.63
2023-02-23T10:51:06.869Z,101247.56
2023-02-23T10:54:37.141Z,101264.59
2023-02-23T10:57:42.219Z,101243.16
2023-02-23T11:01:02.667Z,101232.03
2023-02-23T11:04:25.354Z,101267.19
2023-02-23T11:07:32.344Z,101273.31
2023-02-23T11:10:37.068Z,101262.78
2023-02-23T11:13:42.418Z,101265.03
2023-02-23T11:16:46.815Z,101263.47
2023-02-23T11:19:51.263Z,101236.69
2023-02-23T11:22:58.938Z,101258.31
2023-02-23T11:26:27.872Z,101256.88
2023-02-23T11:29:37.834Z,101254.97
2023-02-23T11:32:45.680Z,101211.78
2023-02-23T11:35:58.930Z,101258.53
2023-02-23T11:39:18.473Z,101273.19
2023-02-23T11:42:26.364Z,101262.69
2023-02-23T11:45:43.533Z,101267.56
2023-02-23T11:49:17.144Z,101266.03
2023-02-23T11:52:32.545Z,101211.03
2023-02-23T11:55:40.832Z,101250.25
2023-02-23T11:58:50.410Z,101270.91
2023-02-23T12:01:59.971Z,101267.00
2023-02-23T12:05:18.763Z,101242.22
2023-02-23T12:08:36.567Z,101266.69
2023-02-23T12:11:47.761Z,101270.44
2023-02-23T12:15:36.129Z,101268.25
2023-02-23T12:18:53.892Z,101278.31
2023-02-23T12:22:08.762Z,101276.28
2023-02-23T12:25:43.406Z,101278.25
2023-02-23T12:28:59.895Z,101270.22
2023-02-23T12:32:14.441Z,101287.03
2023-02-23T12:35:31.023Z,101275.75
2023-02-23T12:39:12.519Z,101271.22
2023-02-23T12:42:17.005Z,101267.66
2023-02-23T12:45:46.054Z,101264.66
2023-02-23T12:49:14.867Z,101262.91
2023-02-23T12:52:28.460Z,101263.41
2023-02-23T12:55:42.369Z,101257.84
2023-02-23T12:59:21.198Z,101273.94
2023-02-23T13:02:37.562Z,101250.22
2023-02-23T13:06:18.948Z,101255.47
2023-02-23T13:10:15.138Z,101255.16
2023-02-23T13:13:56.558Z,101259.78
2023-02-23T13:17:13.641Z,101255.69
2023-02-23T13:20:28.548Z,101261.16
2023-02-23T13:24:12.068Z,101260.75
2023-02-23T13:27:28.647Z,101230.66
2023-02-23T13:30:37.900Z,101253.59
2023-02-23T13:33:44.476Z,101263.03
2023-02-23T13:36:51.307Z,101257.84
2023-02-23T13:40:23.468Z,101257.44
2023-02-23T13:43:53.991Z,101240.78
2023-02-23T13:47:27.852Z,101258.34
2023-02-23T13:50:48.894Z,101255.06
2023-02-23T13:54:00.360Z,101254.88
2023-02-23T13:57:14.211Z,101253.16
2023-02-23T14:00:24.000Z,101241.47
2023-02-23T14:03:34.945Z,101252.59
2023-02-23T14:06:41.212Z,101247.25
2023-02-23T14:09:57.979Z,101238.34
2023-02-23T14:13:17.326Z,101255.59
2023-02-23T14:16:21.874Z,101264.84
2023-02-23T14:19:36.737Z,101260.75
2023-02-23T14:23:19.301Z,101256.50
2023-02-23T14:26:29.899Z,101254.31
2023-02-23T14:29:45.857Z,101247.16
2023-02-23T14:32:51.912Z,101248.66
2023-02-23T14:35:57.036Z,101236.22
2023-02-23T14:39:18.530Z,101226.34
2023-02-23T14:42:33.556Z,101242.75
2023-02-23T14:45:40.068Z,101248.88
2023-02-23T14:49:10.952Z,101244.56
2023-02-23T14:52:25.454Z,101255.69
2023-02-23T14:55:33.419Z,101221.44
2023-02-23T14:58:38.442Z,101245.84
2023-02-23T15:01:42.820Z,101250.53
2023-02-23T15:04:47.747Z,101229.75
2023-02-23T15:07:52.822Z,101249.81
2023-02-23T15:11:16.452Z,101254.22
2023-02-23T15:14:27.886Z,101254.78
2023-02-23T15:17:35.861Z,101211.97
2023-02-23T15:20:44.869Z,101250.16
2023-02-23T15:24:15.078Z,101270.41
2023-02-23T15:27:28.098Z,101250.31
2023-02-23T15:30:36.066Z,101252.38
2023-02-23T15:33:41.266Z,101234.66
2023-02-23T15:36:47.934Z,101238.16
2023-02-23T15:40:03.572Z,101247.81
2023-02-23T15:43:11.916Z,101257.00
2023-02-23T15:46:25.884Z,101249.81
2023-02-23T15:49:37.815Z,101252.41
2023-02-23T15:52:49.653Z,101172.97
2023-02-23T15:56:01.663Z,101230.13
2023-02-23T15:59:15.951Z,101245.59
2023-02-23T16:02:24.975Z,101257.63
2023-02-23T16:05:35.390Z,101256.72
2023-02-23T16:08:59.126Z,101262.59
2023-02-23T16:12:13.762Z,101250.09
2023-02-23T16:15:34.808Z,101256.75
2023-02-23T16:18:47.646Z,101240.91
2023-02-23T16:21:55.093Z,101265.06
2023-02-23T16:25:10.395Z,101260.97
2023-02-23T16:28:21.587Z,101261.97
2023-02-23T16:31:48.896Z,101257.22
2023-02-23T16:35:22.794Z,101250.59
2023-02-23T16:38:35.679Z,101252.13
2023-02-23T16:41:41.933Z,101252.13
2023-02-23T16:44:48.136Z,101191.97
2023-02-23T16:48:03.945Z,101247.25
2023-02-23T16:51:22.128Z,101247.63
2023-02-23T16:54:27.197Z,101254.00
2023-02-23T16:57:40.786Z,101253.41
2023-02-23T17:00:46.506Z,101246.53
2023-02-23T17:03:53.223Z,101250.75
2023-02-23T17:06:58.857Z,101244.44
2023-02-23T17:10:03.250Z,101251.13
2023-02-23T17:13:09.923Z,101248.16
2023-02-23T17:16:18.017Z,101183.75
2023-02-23T17:19:24.429Z,101224.03
2023-02-23T17:22:36.017Z,101204.84
2023-02-23T17:25:40.692Z,101261.22
2023-02-23T17:28:46.377Z,101262.53
2023-02-23T17:31:51.934Z,101232.25
2023-02-23T17:34:56.820Z,101239.16
2023-02-23T17:38:05.174Z,101251.59
2023-02-23T17:41:18.985Z,101259.56
2023-02-23T17:44:26.727Z,101242.00
2023-02-23T17:47:32.847Z,101243.81
2023-02-23T17:50:37.418Z,101204.28
2023-02-23T17:53:42.100Z,101235.28
2023-02-23T17:56:46.798Z,101223.03
2023-02-23T17:59:51.378Z,101233.84
2023-02-23T18:02:55.688Z,101243.13
2023-02-23T18:06:08.646Z,101231.63
2023-02-23T18:09:15.335Z,101236.94
2023-02-23T18:12:20.231Z,101183.91
2023-02-23T18:15:24.931Z,101213.03
2023-02-23T18:18:30.083Z,101216.50
2023-02-23T18:21:35.415Z,101230.41
2023-02-23T18:24:40.201Z,101227.72
2023-02-23T18:27:44.594Z,101231.72
2023-02-23T18:30:48.894Z,101212.75
2023-02-23T18:33:56.008Z,101224.09
2023-02-23T18:37:03.190Z,101218.03
2023-02-23T18:40:07.758Z,101229.28
2023-02-23T18:43:12.425Z,101175.53
2023-02-23T18:46:17.610Z,101215.22
2023-02-23T18:49:23.116Z,101242.97
2023-02-23T18:52:28.080Z,101247.19
2023-02-23T18:55:33.146Z,101257.28
2023-02-23T18:58:37.533Z,101240.63
2023-02-23T19:01:46.140Z,101245.59
2023-02-23T19:04:50.070Z,101243.75
2023-02-23T19:07:55.488Z,101243.13
2023-02-23T19:10:59.538Z,101240.88
2023-02-23T19:14:09.757Z,101229.00
2023-02-23T19:17:14.367Z,101220.91
2023-02-23T19:20:19.081Z,101233.81
2023-02-23T19:23:23.541Z,101245.31
2023-02-23T19:26:28.352Z,101253.06
2023-02-23T19:29:32.189Z,101240.06
2023-02-23T19:32:36.720Z,101240.78
2023-02-23T19:35:41.965Z,101249.34
2023-02-23T19:38:47.267Z,101249.69
2023-02-23T19:41:51.474Z,101253.19
2023-02-23T19:44:55.579Z,101248.09
2023-02-23T19:47:59.798Z,101231.31
2023-02-23T19:51:05.097Z,101244.94
2023-02-23T19:54:09.484Z,101250.75
2023-02-23T20:06:08.991Z,101272.28
2023-02-23T20:09:13.095Z,101271.69
2023-02-23T20:12:17.857Z,101274.06
2023-02-23T20:15:22.968Z,101281.22
2023-02-23T20:32:46.571Z,101266.59
2023-02-23T20:36:18.943Z,101286.34
2023-02-23T20:39:30.566Z,101276.16
2023-02-23T20:42:34.711Z,101273.31
2023-02-23T20:45:42.596Z,101292.84
2023-02-23T20:48:49.821Z,101263.72
2023-02-23T20:51:55.063Z,101282.16
2023-02-23T20:55:01.673Z,101285.84
2023-02-23T20:58:07.676Z,101300.66
2023-02-23T21:01:18.512Z,101248.22
2023-02-23T21:04:23.723Z,101315.34
2023-02-23T21:07:30.284Z,101327.50
2023-02-23T21:10:37.561Z,101307.88
2023-02-23T21:13:44.132Z,101336.06
2023-02-23T21:16:48.383Z,101327.28
2023-02-23T21:19:52.973Z,101331.91
2023-02-23T21:22:57.850Z,101324.22
2023-02-23T21:26:10.484Z,101342.31
2023-02-23T21:29:17.178Z,101332.03
2023-02-23T21:32:21.601Z,101336.97
2023-02-23T21:35:31.783Z,101325.97
2023-02-23T21:38:50.650Z,101331.03
2023-02-23T21:41:56.407Z,101338.88
2023-02-23T21:45:05.881Z,101305.88
2023-02-23T21:48:17.691Z,101350.69
2023-02-23T21:51:22.287Z,101339.47
2023-02-23T21:54:39.831Z,101347.84
2023-02-23T21:57:45.563Z,101349.38
2023-02-23T22:00:54.178Z,101360.84
2023-02-23T22:04:02.028Z,101352.84
2023-02-23T22:07:07.383Z,101368.78
2023-02-23T22:10:11.958Z,101353.81
2023-02-23T22:13:16.087Z,101369.38
2023-02-23T22:16:20.655Z,101372.50
2023-02-23T22:19:25.178Z,101371.72
2023-02-23T22:22:29.597Z,101369.84
2023-02-23T22:25:34.257Z,101374.97
2023-02-23T22:28:38.572Z,101387.56
2023-02-23T22:31:43.106Z,101348.16
2023-02-23T22:34:47.642Z,101376.66
2023-02-23T22:37:51.933Z,101381.16
2023-02-23T22:40:56.365Z,101383.97
2023-02-23T22:44:00.772Z,101378.88
2023-02-23T22:47:05.439Z,101379.66
2023-02-23T22:50:12.841Z,101381.59
2023-02-23T22:53:17.737Z,101382.91
2023-02-23T22:56:22.261Z,101377.28
2023-02-23T22:59:29.476Z,101371.88
2023-02-23T23:02:34.445Z,101367.97
2023-02-23T23:05:38.708Z,101375.03
2023-02-23T23:08:46.425Z,101349.97
2023-02-23T23:11:51.678Z,101369.06
2023-02-23T23:15:02.249Z,101356.94
2023-02-23T23:18:14.796Z,101364.09
2023-02-23T23:21:22.671Z,101367.03
2023-02-23T23:24:27.227Z,101370.44
2023-02-23T23:27:34.028Z,101360.81
2023-02-23T23:30:38.256Z,101369.69
2023-02-23T23:33:48.560Z,101375.78
2023-02-23T23:36:53.736Z,101392.66
2023-02-23T23:40:02.967Z,101382.22
2023-02-23T23:43:08.422Z,101395.16
2023-02-23T23:46:12.376Z,101389.34
2023-02-23T23:49:21.478Z,101404.19
2023-02-23T23:52:26.069Z,101400.31
2023-02-23T23:55:32.267Z,101397.47
2023-02-23T23:58:37.652Z,101393.34
